Glencoe, MN (55336)

8:51 AM CST on February 24, 2017 (GMT -0600)
Severance Lake | | Change Station

Elev 997 ft 44.68 °N, 94.13 °W | Updated 10 minutes ago

Overcast
Overcast
24.0 °F
Feels Like 18 °F
N
5.0
Wind Variable Wind from NNE
Gusts 17.0 mph

Today
High -- | Low -- °F
--% Chance of Precip.
Yesterday
High -- | Low -- °F
Precip. -- in
Pressure 29.87 in
Visibility 10.0 miles
Clouds Scattered Clouds 2500 ft
Overcast 7000 ft
Windchill 18 °F
Dew Point 17 °F
Humidity 76%
Rainfall 0.00 in
Snow Depth Not available.
7:02 AM 5:57 PM
Waning Crescent, 5% visible
METAR KGYL 241436Z AUTO 35014G18KT 10SM SCT025 OVC070 M04/M07 A2987 RMK AO2 T10391075
Pressure 29.87 in
Visibility 10.0 miles
Clouds Scattered Clouds 2500 ft
Overcast 7000 ft
Windchill 18 °F
Dew Point 17 °F
Humidity 76%
Rainfall 0.00 in
Snow Depth Not available.
7:02 AM 5:57 PM
Waning Crescent, 5% visible
METAR KGYL 241436Z AUTO 35014G18KT 10SM SCT025 OVC070 M04/M07 A2987 RMK AO2 T10391075

Get Your Daily Forecast Email!

Thanks for signing up!

Be on the lookout for a verification email in your inbox.

You'll start receiving the daily forecast at 8 AM.

×

10-Day Weather Forecast

Almanac

Astronomy

Feb. 24, 2017 Rise Set
Actual Time
Civil Twilight
Nautical Twilight
Astronomical Twilight
Moon
Length of Visible Light
Length of Day
Tomorrow will be .
, % of the Moon is Illuminated

Today's Extremes

State Highs State Lows

Community

WunderPhotos

Upload Photos

1,962,540 photos uploaded!

WunderBlog® & News

Nearby

Air Quality

  Air Quality AQ Index Pollutant
Not available.

Snow Depth

Station Depth Elevation

Earthquake Activity

City Distance Mag. Time & Date
Minimum magnitude displayed is 2.5.

Coastal Water Temperatures

Place Temperature

Stations

Nearby Weather Stations

Station Location Temp. Windchill Dew Point Humidity Wind Precip. Elev Updated Type
                   

Watches & Warnings

There are currently no watches in effect.